createdAt,value
2023-05-19T00:00:42.507Z,1001.31
2023-05-19T00:01:42.521Z,1001.27
2023-05-19T00:02:42.542Z,1001.37
2023-05-19T00:03:42.512Z,1001.39
2023-05-19T00:04:42.482Z,1001.33
2023-05-19T00:05:42.489Z,1001.32
2023-05-19T00:06:42.463Z,1001.30
2023-05-19T00:07:42.437Z,1001.31
2023-05-19T00:08:42.427Z,1001.28
2023-05-19T00:09:42.420Z,1001.30
2023-05-19T00:10:42.413Z,1001.26
2023-05-19T00:11:42.391Z,1001.36
2023-05-19T00:12:42.385Z,1001.31
2023-05-19T00:13:42.368Z,1001.37
2023-05-19T00:14:42.373Z,1001.30
2023-05-19T00:15:42.379Z,1001.31
2023-05-19T00:16:42.423Z,1001.30
2023-05-19T00:17:42.424Z,1001.29
2023-05-19T00:18:42.351Z,1001.32
2023-05-19T00:19:42.302Z,1001.28
2023-05-19T00:20:42.305Z,1001.25
2023-05-19T00:21:42.285Z,1001.25
2023-05-19T00:22:42.273Z,1001.31
2023-05-19T00:23:42.263Z,1001.29
2023-05-19T00:24:42.268Z,1001.28
2023-05-19T00:25:42.258Z,1001.26
2023-05-19T00:26:42.230Z,1001.36
2023-05-19T00:27:42.230Z,1001.36
2023-05-19T00:28:42.208Z,1001.30
2023-05-19T00:29:42.219Z,1001.34
2023-05-19T00:30:42.187Z,1001.35
2023-05-19T00:31:42.230Z,1001.30
2023-05-19T00:32:42.236Z,1001.29
2023-05-19T00:33:42.164Z,1001.31
2023-05-19T00:34:42.156Z,1001.27
2023-05-19T00:35:42.133Z,1001.36
2023-05-19T00:36:42.132Z,1001.27
2023-05-19T00:37:42.108Z,1001.32
2023-05-19T00:38:42.127Z,1001.31
2023-05-19T00:39:42.101Z,1001.26
2023-05-19T00:40:42.080Z,1001.32
2023-05-19T00:41:42.077Z,1001.28
2023-05-19T00:42:42.058Z,1001.29
2023-05-19T00:43:42.087Z,1001.25
2023-05-19T00:44:42.034Z,1001.29
2023-05-19T00:45:42.026Z,1001.25
2023-05-19T00:46:42.038Z,1001.28
2023-05-19T00:47:42.073Z,1001.23
2023-05-19T00:48:42.014Z,1001.24
2023-05-19T00:49:41.991Z,1001.28
2023-05-19T00:50:41.972Z,1001.24
2023-05-19T00:51:41.969Z,1001.28
2023-05-19T00:52:41.966Z,1001.30
2023-05-19T00:53:41.959Z,1001.25
2023-05-19T00:54:41.937Z,1001.29
2023-05-19T00:55:41.930Z,1001.24
2023-05-19T00:56:41.909Z,1001.26
2023-05-19T00:57:41.917Z,1001.25
2023-05-19T00:58:41.893Z,1001.35
2023-05-19T00:59:41.881Z,1001.22
2023-05-19T01:00:41.897Z,1001.28
2023-05-19T01:01:41.869Z,1001.21
2023-05-19T01:02:41.907Z,1001.19
2023-05-19T01:03:41.902Z,1001.14
2023-05-19T01:04:41.868Z,1001.20
2023-05-19T01:05:41.814Z,1001.18
2023-05-19T01:06:41.799Z,1001.17
2023-05-19T01:07:41.803Z,1001.21
2023-05-19T01:08:41.779Z,1001.19
2023-05-19T01:09:41.767Z,1001.17
2023-05-19T01:10:41.765Z,1001.23
2023-05-19T01:11:41.782Z,1001.19
2023-05-19T01:12:41.743Z,1001.19
2023-05-19T01:13:42.301Z,1001.24
2023-05-19T01:14:41.713Z,1001.21
2023-05-19T01:15:41.708Z,1001.26
2023-05-19T01:16:41.734Z,1001.22
2023-05-19T01:17:41.796Z,1001.18
2023-05-19T01:18:41.692Z,1001.14
2023-05-19T01:19:41.666Z,1001.20
2023-05-19T01:20:41.651Z,1001.14
2023-05-19T01:21:41.648Z,1001.15
2023-05-19T01:22:41.627Z,1001.12
2023-05-19T01:23:41.619Z,1001.22
2023-05-19T01:24:41.605Z,1001.14
2023-05-19T01:25:41.607Z,1001.18
2023-05-19T01:26:41.600Z,1001.13
2023-05-19T01:27:41.576Z,1001.19
2023-05-19T01:28:41.561Z,1001.11
2023-05-19T01:29:41.573Z,1001.13
2023-05-19T01:30:41.553Z,1001.12
2023-05-19T01:31:41.588Z,1001.21
2023-05-19T01:32:41.555Z,1001.04
2023-05-19T01:33:41.519Z,1001.17
2023-05-19T01:34:41.499Z,1001.08
2023-05-19T01:35:41.508Z,1001.15
2023-05-19T01:36:41.484Z,1001.15
2023-05-19T01:37:41.478Z,1001.15
2023-05-19T01:38:41.459Z,1001.16
2023-05-19T01:39:41.475Z,1001.17
2023-05-19T01:40:41.451Z,1001.27
2023-05-19T01:41:41.427Z,1001.12
2023-05-19T01:42:41.436Z,1001.09
2023-05-19T01:43:41.409Z,1001.15
2023-05-19T01:44:41.408Z,1001.12
2023-05-19T01:45:41.448Z,1001.09
2023-05-19T01:46:41.377Z,1001.04
2023-05-19T01:47:41.376Z,1001.08
2023-05-19T01:48:41.355Z,1001.14
2023-05-19T01:49:41.362Z,1001.13
2023-05-19T01:50:41.339Z,1001.09
2023-05-19T01:51:41.320Z,1001.14
2023-05-19T01:52:41.312Z,1001.14
2023-05-19T01:53:41.304Z,1001.17
2023-05-19T01:54:41.303Z,1001.08
2023-05-19T01:55:41.279Z,1001.16
2023-05-19T01:56:41.271Z,1001.13
2023-05-19T01:57:41.259Z,1001.14
2023-05-19T01:58:41.264Z,1001.19
2023-05-19T01:59:41.244Z,1001.14
2023-05-19T02:00:41.226Z,1001.17
2023-05-19T02:01:41.308Z,1001.21
2023-05-19T02:02:41.245Z,1001.21
2023-05-19T02:03:41.212Z,1001.13
2023-05-19T02:04:41.259Z,1001.13
2023-05-19T02:05:41.172Z,1001.15
2023-05-19T02:06:41.166Z,1001.16
2023-05-19T02:07:41.160Z,1001.27
2023-05-19T02:08:41.152Z,1001.28
2023-05-19T02:09:41.131Z,1001.18
2023-05-19T02:10:41.120Z,1001.26
2023-05-19T02:11:41.103Z,1001.21
2023-05-19T02:12:41.111Z,1001.28
2023-05-19T02:13:41.083Z,1001.18
2023-05-19T02:14:41.080Z,1001.20
2023-05-19T02:15:41.117Z,1001.30
2023-05-19T02:16:41.052Z,1001.21
2023-05-19T02:17:41.089Z,1001.17
2023-05-19T02:18:41.071Z,1001.18
2023-05-19T02:19:41.030Z,1001.18
2023-05-19T02:20:41.013Z,1001.30
2023-05-19T02:21:41.011Z,1001.17
2023-05-19T02:22:41.003Z,1001.16
2023-05-19T02:23:40.981Z,1001.19
2023-05-19T02:24:40.969Z,1001.17
2023-05-19T02:25:40.950Z,1001.16
2023-05-19T02:26:40.958Z,1001.22
2023-05-19T02:27:40.932Z,1001.15
2023-05-19T02:28:40.925Z,1001.20
2023-05-19T02:29:40.911Z,1001.21
2023-05-19T02:30:40.907Z,1001.14
2023-05-19T02:31:40.920Z,1001.23
2023-05-19T02:32:41.012Z,1001.24
2023-05-19T02:33:40.876Z,1001.15
2023-05-19T02:34:40.863Z,1001.17
2023-05-19T02:35:40.849Z,1001.23
2023-05-19T02:36:40.853Z,1001.16
2023-05-19T02:37:40.828Z,1001.16
2023-05-19T02:38:40.819Z,1001.08
2023-05-19T02:39:40.805Z,1001.18
2023-05-19T02:40:40.809Z,1001.10
2023-05-19T02:41:40.796Z,1001.15
2023-05-19T02:42:40.783Z,1001.09
2023-05-19T02:43:40.776Z,1001.08
2023-05-19T02:44:40.763Z,1001.11
2023-05-19T02:45:40.752Z,1001.02
2023-05-19T02:46:40.779Z,1001.15
2023-05-19T02:47:40.741Z,1001.10
2023-05-19T02:48:40.715Z,1001.03
2023-05-19T02:49:40.711Z,1001.08
2023-05-19T02:50:40.711Z,1001.03
2023-05-19T02:51:40.693Z,1001.08
2023-05-19T02:52:40.678Z,1001.07
2023-05-19T02:53:40.660Z,1001.02
2023-05-19T02:54:40.675Z,1000.98
2023-05-19T02:55:40.655Z,1001.07
2023-05-19T02:56:40.633Z,1001.02
2023-05-19T02:57:40.617Z,1001.04
2023-05-19T02:58:40.609Z,1001.10
2023-05-19T02:59:40.606Z,1001.03
2023-05-19T03:00:40.587Z,1001.06
2023-05-19T03:01:40.714Z,1001.00
2023-05-19T03:02:40.724Z,1001.03
2023-05-19T03:03:40.610Z,1001.07
2023-05-19T03:04:40.557Z,1001.06
2023-05-19T03:05:40.536Z,1001.07
2023-05-19T03:06:40.528Z,1001.04
2023-05-19T03:07:40.513Z,1001.02
2023-05-19T03:08:42.318Z,1001.08
2023-05-19T03:09:40.510Z,1000.98
2023-05-19T03:10:40.477Z,1001.10
2023-05-19T03:11:40.471Z,1001.07
2023-05-19T03:12:40.461Z,1001.03
2023-05-19T03:13:40.461Z,1001.03
2023-05-19T03:14:40.456Z,1001.09
2023-05-19T03:15:40.437Z,1001.16
2023-05-19T03:16:40.562Z,1001.06
2023-05-19T03:17:40.475Z,1001.05
2023-05-19T03:18:40.433Z,1001.06
2023-05-19T03:19:40.393Z,1001.01
2023-05-19T03:20:41.649Z,1001.09
2023-05-19T03:21:40.373Z,1001.07
2023-05-19T03:22:40.376Z,1001.02
2023-05-19T03:23:40.361Z,1001.04
2023-05-19T03:24:40.338Z,1001.06
2023-05-19T03:25:40.327Z,1001.01
2023-05-19T03:26:40.322Z,1001.11
2023-05-19T03:27:40.319Z,1001.04
2023-05-19T03:28:40.296Z,1000.98
2023-05-19T03:29:40.288Z,1001.02
2023-05-19T03:30:40.277Z,1000.95
2023-05-19T03:31:40.281Z,1001.12
2023-05-19T03:32:40.331Z,1001.07
2023-05-19T03:33:40.258Z,1001.09
2023-05-19T03:34:40.236Z,1001.13
2023-05-19T03:35:40.231Z,1001.07
2023-05-19T03:36:40.225Z,1001.04
2023-05-19T03:37:40.331Z,1001.10
2023-05-19T03:38:40.196Z,1001.11
2023-05-19T03:39:40.187Z,1001.07
2023-05-19T03:40:40.173Z,1001.20
2023-05-19T03:41:40.174Z,1001.10
2023-05-19T03:42:40.161Z,1001.19
2023-05-19T03:43:40.168Z,1001.12
2023-05-19T03:44:40.136Z,1001.14
2023-05-19T03:45:40.154Z,1001.16
2023-05-19T03:46:40.124Z,1001.21
2023-05-19T03:47:40.169Z,1001.21
2023-05-19T03:48:40.098Z,1001.23
2023-05-19T03:49:40.076Z,1001.14
2023-05-19T03:50:40.082Z,1001.15
2023-05-19T03:51:40.067Z,1001.09
2023-05-19T03:52:40.047Z,1001.16
2023-05-19T03:53:40.088Z,1001.16
2023-05-19T03:54:40.028Z,1001.22
2023-05-19T03:55:40.033Z,1001.23
2023-05-19T03:56:40.027Z,1001.16
2023-05-19T03:57:39.993Z,1001.20
2023-05-19T03:58:39.988Z,1001.25
2023-05-19T03:59:39.972Z,1001.26
2023-05-19T04:00:39.971Z,1001.27
2023-05-19T04:01:39.950Z,1001.26
2023-05-19T04:02:40.003Z,1001.20
2023-05-19T04:03:39.981Z,1001.25
2023-05-19T04:04:39.976Z,1001.24
2023-05-19T04:05:39.920Z,1001.30
2023-05-19T04:06:39.905Z,1001.22
2023-05-19T04:07:39.890Z,1001.23
2023-05-19T04:08:39.878Z,1001.28
2023-05-19T04:09:39.891Z,1001.21
2023-05-19T04:10:39.859Z,1001.25
2023-05-19T04:11:39.852Z,1001.25
2023-05-19T04:12:39.857Z,1001.29
2023-05-19T04:13:39.820Z,1001.26
2023-05-19T04:14:39.824Z,1001.30
2023-05-19T04:15:39.856Z,1001.21
2023-05-19T04:16:39.799Z,1001.31
2023-05-19T04:17:39.814Z,1001.29
2023-05-19T04:18:39.798Z,1001.25
2023-05-19T04:19:39.765Z,1001.25
2023-05-19T04:20:39.768Z,1001.26
2023-05-19T04:21:39.748Z,1001.34
2023-05-19T04:22:39.737Z,1001.27
2023-05-19T04:23:39.723Z,1001.34
2023-05-19T04:24:39.711Z,1001.25
2023-05-19T04:25:39.709Z,1001.24
2023-05-19T04:26:39.681Z,1001.25
2023-05-19T04:27:39.676Z,1001.26
2023-05-19T04:28:39.677Z,1001.19
2023-05-19T04:29:39.651Z,1001.15
2023-05-19T04:30:39.643Z,1001.15
2023-05-19T04:31:39.733Z,1001.25
2023-05-19T04:32:39.779Z,1001.24
2023-05-19T04:33:39.622Z,1001.25
2023-05-19T04:34:39.604Z,1001.20
2023-05-19T04:35:39.595Z,1001.17
2023-05-19T04:36:39.579Z,1001.22
2023-05-19T04:37:39.575Z,1001.18
2023-05-19T04:38:39.575Z,1001.15
2023-05-19T04:39:39.557Z,1001.24
2023-05-19T04:40:39.544Z,1001.23
2023-05-19T04:41:39.532Z,1001.23
2023-05-19T04:42:39.536Z,1001.18
2023-05-19T04:43:39.507Z,1001.29
2023-05-19T04:44:39.501Z,1001.28
2023-05-19T04:45:39.489Z,1001.34
2023-05-19T04:46:39.556Z,1001.25
2023-05-19T04:47:39.514Z,1001.19
2023-05-19T04:48:39.472Z,1001.27
2023-05-19T04:49:39.461Z,1001.24
2023-05-19T04:50:39.436Z,1001.23
2023-05-19T04:51:39.445Z,1001.31
2023-05-19T04:52:39.425Z,1001.31
2023-05-19T04:53:39.407Z,1001.23
2023-05-19T04:54:39.426Z,1001.27
2023-05-19T04:55:39.401Z,1001.26
2023-05-19T04:56:39.386Z,1001.31
2023-05-19T04:57:39.370Z,1001.20
2023-05-19T04:58:41.845Z,1001.19
2023-05-19T04:59:39.351Z,1001.14
2023-05-19T05:00:39.337Z,1001.18
2023-05-19T05:01:39.373Z,1001.16
2023-05-19T05:02:39.369Z,1001.18
2023-05-19T05:03:39.389Z,1001.22
2023-05-19T05:04:39.291Z,1001.28
2023-05-19T05:05:39.283Z,1001.26
2023-05-19T05:06:39.280Z,1001.31
2023-05-19T05:07:39.274Z,1001.26
2023-05-19T05:08:39.252Z,1001.29
2023-05-19T05:09:39.235Z,1001.27
2023-05-19T05:10:39.231Z,1001.25
2023-05-19T05:11:39.230Z,1001.24
2023-05-19T05:12:39.206Z,1001.31
2023-05-19T05:13:39.221Z,1001.33
2023-05-19T05:14:39.180Z,1001.30
2023-05-19T05:15:39.184Z,1001.24
2023-05-19T05:16:39.180Z,1001.31
2023-05-19T05:17:39.192Z,1001.31
2023-05-19T05:18:39.173Z,1001.27
2023-05-19T05:19:39.134Z,1001.32
2023-05-19T05:20:39.125Z,1001.25
2023-05-19T05:21:39.108Z,1001.27
2023-05-19T05:22:39.093Z,1001.28
2023-05-19T05:23:39.083Z,1001.24
2023-05-19T05:24:39.084Z,1001.23
2023-05-19T05:25:39.108Z,1001.22
2023-05-19T05:26:39.055Z,1001.17
2023-05-19T05:27:39.042Z,1001.24
2023-05-19T05:28:39.024Z,1001.25
2023-05-19T05:29:39.044Z,1001.25
2023-05-19T05:30:39.008Z,1001.16
2023-05-19T05:31:38.991Z,1001.22
2023-05-19T05:32:39.047Z,1001.25
2023-05-19T05:33:39.009Z,1001.26
2023-05-19T05:34:38.969Z,1001.18
2023-05-19T05:35:38.959Z,1001.19
2023-05-19T05:36:38.935Z,1001.22
2023-05-19T05:37:38.935Z,1001.18
2023-05-19T05:38:38.922Z,1001.18
2023-05-19T05:39:38.930Z,1001.11
2023-05-19T05:40:38.894Z,1001.10
2023-05-19T05:41:38.888Z,1000.99
2023-05-19T05:42:38.875Z,1000.98
2023-05-19T05:43:38.897Z,1001.10
2023-05-19T05:44:38.873Z,1001.03
2023-05-19T05:45:38.871Z,1001.01
2023-05-19T05:46:38.842Z,1001.02
2023-05-19T05:47:38.848Z,1001.02
2023-05-19T05:48:38.823Z,1001.08
2023-05-19T05:49:38.797Z,1001.05
2023-05-19T05:50:38.789Z,1001.07
2023-05-19T05:51:38.780Z,1001.08
2023-05-19T05:52:38.763Z,1001.04
2023-05-19T05:53:38.768Z,1001.00
2023-05-19T05:54:38.749Z,1001.02
2023-05-19T05:55:38.740Z,1001.08
2023-05-19T05:56:38.729Z,1001.08
2023-05-19T05:57:38.727Z,1000.98
2023-05-19T05:58:38.716Z,1001.01
2023-05-19T05:59:38.711Z,1001.01
2023-05-19T06:00:38.691Z,1001.01
2023-05-19T06:01:38.698Z,1001.06
2023-05-19T06:02:38.777Z,1001.10
2023-05-19T06:03:38.809Z,1000.96
2023-05-19T06:04:38.649Z,1000.98
2023-05-19T06:05:38.783Z,1001.02
2023-05-19T06:06:38.622Z,1001.00
2023-05-19T06:07:38.629Z,1000.92
2023-05-19T06:08:38.602Z,1000.95
2023-05-19T06:09:38.597Z,1001.04
2023-05-19T06:10:38.583Z,1001.02
2023-05-19T06:11:38.588Z,1000.95
2023-05-19T06:12:38.562Z,1000.94
2023-05-19T06:13:38.562Z,1000.94
2023-05-19T06:14:38.541Z,1001.03
2023-05-19T06:15:38.578Z,1000.95
2023-05-19T06:16:38.572Z,1000.95
2023-05-19T06:17:38.551Z,1000.96
2023-05-19T06:18:38.543Z,1000.96
2023-05-19T06:19:38.488Z,1000.91
2023-05-19T06:20:38.489Z,1000.89
2023-05-19T06:21:38.487Z,1000.97
2023-05-19T06:22:38.475Z,1000.94
2023-05-19T06:23:38.445Z,1000.90
2023-05-19T06:24:39.547Z,1000.96
2023-05-19T06:25:38.435Z,1001.01
2023-05-19T06:26:38.407Z,1000.96
2023-05-19T06:27:38.431Z,1000.91
2023-05-19T06:28:38.391Z,1000.96
2023-05-19T06:29:38.386Z,1000.97
2023-05-19T06:30:38.384Z,1000.87
2023-05-19T06:31:38.400Z,1000.95
2023-05-19T06:32:38.379Z,1000.95
2023-05-19T06:33:38.372Z,1000.85
2023-05-19T06:34:38.390Z,1000.91
2023-05-19T06:35:38.332Z,1000.83
2023-05-19T06:36:38.306Z,1000.88
2023-05-19T06:37:38.306Z,1000.81
2023-05-19T06:38:38.297Z,1000.91
2023-05-19T06:39:38.293Z,1000.82
2023-05-19T06:40:38.272Z,1000.81
2023-05-19T06:41:38.268Z,1000.88
2023-05-19T06:42:38.256Z,1000.90
2023-05-19T06:43:38.242Z,1000.91
2023-05-19T06:44:38.244Z,1000.82
2023-05-19T06:45:38.223Z,1000.83
2023-05-19T06:46:38.298Z,1000.80
2023-05-19T06:47:38.225Z,1000.80
2023-05-19T06:48:38.202Z,1000.84
2023-05-19T06:49:38.210Z,1000.80
2023-05-19T06:50:38.165Z,1000.87
2023-05-19T06:51:38.163Z,1000.84
2023-05-19T06:52:38.141Z,1000.92
2023-05-19T06:53:38.148Z,1000.79
2023-05-19T06:54:38.132Z,1000.79
2023-05-19T06:55:44.080Z,1000.83
2023-05-19T06:56:39.115Z,1000.80
2023-05-19T06:57:38.100Z,1000.80
2023-05-19T06:58:38.099Z,1000.85
2023-05-19T06:59:38.081Z,1000.88
2023-05-19T07:00:38.073Z,1000.91
2023-05-19T07:01:38.107Z,1000.91
2023-05-19T07:02:38.106Z,1000.88
2023-05-19T07:03:38.177Z,1000.87
2023-05-19T07:04:38.027Z,1000.85
2023-05-19T07:05:38.058Z,1000.86
2023-05-19T07:06:38.004Z,1000.86
2023-05-19T07:07:38.013Z,1000.80
2023-05-19T07:08:37.984Z,1000.84
2023-05-19T07:09:37.988Z,1000.88
2023-05-19T07:10:37.986Z,1000.93
2023-05-19T07:11:37.966Z,1000.89
2023-05-19T07:12:37.954Z,1000.85
2023-05-19T07:13:37.942Z,1000.86
2023-05-19T07:14:37.926Z,1000.87
2023-05-19T07:15:37.921Z,1000.81
2023-05-19T07:16:37.955Z,1000.78
2023-05-19T07:17:37.978Z,1000.81
2023-05-19T07:18:37.943Z,1000.83
2023-05-19T07:19:37.873Z,1000.86
2023-05-19T07:20:37.865Z,1000.76
2023-05-19T07:21:37.878Z,1000.73
2023-05-19T07:22:37.840Z,1000.72
2023-05-19T07:23:37.833Z,1000.68
2023-05-19T07:24:37.830Z,1000.69
2023-05-19T07:25:37.808Z,1000.74
2023-05-19T07:26:37.816Z,1000.64
2023-05-19T07:27:37.793Z,1000.62
2023-05-19T07:28:39.797Z,1000.61
2023-05-19T07:29:37.772Z,1000.56
2023-05-19T07:30:37.775Z,1000.57
2023-05-19T07:31:37.827Z,1000.57
2023-05-19T07:32:37.773Z,1000.54
2023-05-19T07:33:37.740Z,1000.56
2023-05-19T07:34:37.720Z,1000.59
2023-05-19T07:35:37.730Z,1000.55
2023-05-19T07:36:37.718Z,1000.61
2023-05-19T07:37:37.697Z,1000.55
2023-05-19T07:38:37.687Z,1000.65
2023-05-19T07:39:37.677Z,1000.59
2023-05-19T07:40:37.691Z,1000.60
2023-05-19T07:41:37.678Z,1000.55
2023-05-19T07:42:37.671Z,1000.63
2023-05-19T07:43:37.641Z,1000.54
2023-05-19T07:44:37.640Z,1000.56
2023-05-19T07:45:37.690Z,1000.57
2023-05-19T07:46:37.759Z,1000.56
2023-05-19T07:47:37.742Z,1000.57
2023-05-19T07:48:37.587Z,1000.50
2023-05-19T07:49:37.588Z,1000.50
2023-05-19T07:50:37.563Z,1000.49
2023-05-19T07:51:37.553Z,1000.51
2023-05-19T07:52:37.547Z,1000.47
2023-05-19T07:53:37.579Z,1000.52
2023-05-19T07:54:37.531Z,1000.37
2023-05-19T07:55:37.521Z,1000.46
2023-05-19T07:56:37.506Z,1000.46
2023-05-19T07:57:37.498Z,1000.46
2023-05-19T07:58:37.492Z,1000.42
2023-05-19T07:59:37.835Z,1000.38
2023-05-19T08:00:37.462Z,1000.51
2023-05-19T08:01:37.456Z,1000.40
2023-05-19T08:02:37.510Z,1000.44
2023-05-19T08:03:37.650Z,1000.40
2023-05-19T08:04:37.483Z,1000.36
2023-05-19T08:05:37.417Z,1000.42
2023-05-19T08:06:37.403Z,1000.35
2023-05-19T08:07:37.401Z,1000.43
2023-05-19T08:08:37.399Z,1000.39
2023-05-19T08:09:37.380Z,1000.39
2023-05-19T08:10:37.398Z,1000.41
2023-05-19T08:11:37.353Z,1000.34
2023-05-19T08:12:37.357Z,1000.33
2023-05-19T08:13:37.350Z,1000.32
2023-05-19T08:14:37.320Z,1000.37
2023-05-19T08:15:37.335Z,1000.37
2023-05-19T08:16:37.303Z,1000.39
2023-05-19T08:17:37.338Z,1000.43
2023-05-19T08:18:37.310Z,1000.30
2023-05-19T08:19:37.276Z,1000.34
2023-05-19T08:20:37.270Z,1000.34
2023-05-19T08:21:37.264Z,1000.31
2023-05-19T08:22:37.273Z,1000.34
2023-05-19T08:23:37.238Z,1000.25
2023-05-19T08:24:37.221Z,1000.35
2023-05-19T08:25:37.220Z,1000.39
2023-05-19T08:26:38.082Z,1000.32
2023-05-19T08:27:37.205Z,1000.29
2023-05-19T08:28:37.182Z,1000.37
2023-05-19T08:29:37.175Z,1000.34
2023-05-19T08:30:37.171Z,1000.38
2023-05-19T08:31:37.204Z,1000.37
2023-05-19T08:32:37.179Z,1000.35
2023-05-19T08:33:37.141Z,1000.30
2023-05-19T08:34:37.161Z,1000.29
2023-05-19T08:35:37.141Z,1000.32
2023-05-19T08:36:37.116Z,1000.36
2023-05-19T08:37:37.125Z,1000.34
2023-05-19T08:38:37.085Z,1000.30
2023-05-19T08:39:37.077Z,1000.25
2023-05-19T08:40:37.068Z,1000.26
2023-05-19T08:41:37.081Z,1000.23
2023-05-19T08:42:37.076Z,1000.26
2023-05-19T08:43:37.042Z,1000.19
2023-05-19T08:44:37.035Z,1000.16
2023-05-19T08:45:37.033Z,1000.21
2023-05-19T08:46:37.091Z,1000.21
2023-05-19T08:47:37.027Z,1000.25
2023-05-19T08:48:36.986Z,1000.20
2023-05-19T08:49:36.978Z,1000.21
2023-05-19T08:50:36.973Z,1000.30
2023-05-19T08:51:36.960Z,1000.25
2023-05-19T08:52:36.956Z,1000.15
2023-05-19T08:53:36.945Z,1000.21
2023-05-19T08:54:36.925Z,1000.14
2023-05-19T08:55:36.947Z,1000.15
2023-05-19T08:56:36.906Z,1000.16
2023-05-19T08:57:36.917Z,1000.16
2023-05-19T08:58:36.882Z,1000.12
2023-05-19T08:59:36.891Z,1000.10
2023-05-19T09:00:37.322Z,1000.09
2023-05-19T09:02:36.920Z,1000.02
2023-05-19T09:03:36.913Z,1000.02
2023-05-19T09:04:49.586Z,1000.04
2023-05-19T09:05:37.861Z,1000.08
2023-05-19T09:06:36.811Z,1000.14
2023-05-19T09:07:36.795Z,1000.08
2023-05-19T09:08:36.800Z,1000.14
2023-05-19T09:09:36.802Z,1000.11
2023-05-19T09:10:36.771Z,1000.06
2023-05-19T09:11:36.757Z,1000.06
2023-05-19T09:12:36.754Z,1000.03
2023-05-19T09:13:36.756Z,1000.05
2023-05-19T09:14:36.745Z,1000.03
2023-05-19T09:15:36.893Z,1000.04
2023-05-19T09:16:36.745Z,1000.07
2023-05-19T09:17:36.780Z,1000.08
2023-05-19T09:18:36.716Z,1000.14
2023-05-19T09:19:36.693Z,1000.07
2023-05-19T09:20:36.677Z,1000.13
2023-05-19T09:21:36.673Z,1000.11
2023-05-19T09:22:36.665Z,1000.11
2023-05-19T09:23:36.649Z,1000.11
2023-05-19T09:24:36.633Z,1000.14
2023-05-19T09:25:36.617Z,1000.07
2023-05-19T09:26:36.611Z,1000.00
2023-05-19T09:27:36.610Z,999.99
2023-05-19T09:28:36.686Z,1000.03
2023-05-19T09:29:36.588Z,1000.01
2023-05-19T09:30:36.572Z,999.97
2023-05-19T09:31:36.595Z,1000.06
2023-05-19T09:32:36.594Z,999.97
2023-05-19T09:33:36.547Z,1000.01
2023-05-19T09:34:36.535Z,1000.00
2023-05-19T09:35:36.522Z,999.90
2023-05-19T09:36:36.508Z,999.89
2023-05-19T09:37:36.509Z,999.86
2023-05-19T09:38:36.489Z,999.93
2023-05-19T09:39:36.484Z,999.92
2023-05-19T09:40:36.473Z,999.92
2023-05-19T09:41:36.463Z,999.87
2023-05-19T09:42:36.460Z,999.85
2023-05-19T09:43:36.562Z,999.83
2023-05-19T09:44:36.474Z,999.85
2023-05-19T09:45:36.546Z,999.80
2023-05-19T09:46:36.481Z,999.83
2023-05-19T09:47:36.436Z,999.81
2023-05-19T09:48:36.662Z,999.76
2023-05-19T09:49:36.382Z,999.76
2023-05-19T09:50:36.375Z,999.74
2023-05-19T09:51:36.369Z,999.80
2023-05-19T09:52:36.374Z,999.73
2023-05-19T09:53:36.341Z,999.77
2023-05-19T09:54:36.334Z,999.80
2023-05-19T09:55:36.319Z,999.77
2023-05-19T09:56:36.326Z,999.74
2023-05-19T09:57:36.301Z,999.76
2023-05-19T09:58:36.369Z,999.78
2023-05-19T09:59:36.283Z,999.74
2023-05-19T10:00:36.284Z,999.78
2023-05-19T10:01:36.319Z,999.76
2023-05-19T10:02:36.268Z,999.77
2023-05-19T10:03:36.242Z,999.72
2023-05-19T10:04:36.271Z,999.76
2023-05-19T10:05:36.340Z,999.78
2023-05-19T10:06:36.218Z,999.81
2023-05-19T10:07:36.201Z,999.88
2023-05-19T10:08:36.191Z,999.75
2023-05-19T10:09:36.197Z,999.74
2023-05-19T10:10:36.185Z,999.76
2023-05-19T10:11:36.167Z,999.79
2023-05-19T10:12:36.158Z,999.75
2023-05-19T10:13:36.136Z,999.78
2023-05-19T10:14:36.146Z,999.75
2023-05-19T10:15:40.719Z,999.73
2023-05-19T10:16:37.177Z,999.71
2023-05-19T10:17:36.118Z,999.71
2023-05-19T10:18:37.746Z,999.68
2023-05-19T10:19:36.133Z,999.62
2023-05-19T10:20:36.071Z,999.65
2023-05-19T10:21:36.068Z,999.64
2023-05-19T10:22:36.057Z,999.66
2023-05-19T10:23:36.050Z,999.65
2023-05-19T10:24:36.050Z,999.64
2023-05-19T10:25:36.025Z,999.67
2023-05-19T10:26:36.014Z,999.71
2023-05-19T10:27:36.003Z,999.65
2023-05-19T10:28:36.010Z,999.61
2023-05-19T10:29:36.000Z,999.61
2023-05-19T10:30:36.009Z,999.61
2023-05-19T10:31:36.038Z,999.66
2023-05-19T10:32:36.009Z,999.63
2023-05-19T10:33:35.970Z,999.64
2023-05-19T10:34:35.936Z,999.71
2023-05-19T10:35:36.319Z,999.61
2023-05-19T10:36:35.937Z,999.56
2023-05-19T10:37:35.907Z,999.53
2023-05-19T10:38:35.905Z,999.61
2023-05-19T10:39:35.877Z,999.48
2023-05-19T10:40:35.875Z,999.53
2023-05-19T10:41:35.863Z,999.56
2023-05-19T10:42:35.865Z,999.59
2023-05-19T10:43:35.869Z,999.48
2023-05-19T10:44:35.837Z,999.46
2023-05-19T10:45:36.114Z,999.47
2023-05-19T10:46:35.847Z,999.47
2023-05-19T10:47:35.857Z,999.48
2023-05-19T10:48:35.796Z,999.45
2023-05-19T10:49:35.821Z,999.42
2023-05-19T10:50:35.776Z,999.37
2023-05-19T10:51:35.769Z,999.44
2023-05-19T10:52:35.763Z,999.38
2023-05-19T10:53:35.761Z,999.36
2023-05-19T10:54:35.740Z,999.45
2023-05-19T10:55:35.724Z,999.47
2023-05-19T10:56:35.726Z,999.38
2023-05-19T10:57:35.720Z,999.42
2023-05-19T10:58:35.705Z,999.35
2023-05-19T10:59:35.685Z,999.49
2023-05-19T11:00:35.703Z,999.43
2023-05-19T11:01:35.773Z,999.53
2023-05-19T11:02:35.711Z,999.46
2023-05-19T11:03:35.766Z,999.43
2023-05-19T11:04:35.713Z,999.39
2023-05-19T11:07:01.740Z,999.37
2023-05-19T11:08:01.605Z,999.37
2023-05-19T11:09:01.603Z,999.41
2023-05-19T11:10:01.600Z,999.40
2023-05-19T11:11:01.612Z,999.35
2023-05-19T11:12:01.572Z,999.32
2023-05-19T11:13:01.551Z,999.27
2023-05-19T11:14:01.544Z,999.26
2023-05-19T11:15:01.556Z,999.38
2023-05-19T11:16:01.533Z,999.37
2023-05-19T11:17:01.608Z,999.35
2023-05-19T11:18:01.517Z,999.37
2023-05-19T11:19:01.517Z,999.29
2023-05-19T11:20:01.491Z,999.35
2023-05-19T11:21:01.516Z,999.34
2023-05-19T11:22:01.460Z,999.40
2023-05-19T11:23:01.514Z,999.40
2023-05-19T11:24:01.514Z,999.49
2023-05-19T11:25:01.448Z,999.37
2023-05-19T11:26:01.427Z,999.39
2023-05-19T11:27:01.409Z,999.40
2023-05-19T11:28:01.396Z,999.41
2023-05-19T11:29:01.404Z,999.43
2023-05-19T11:30:01.402Z,999.39
2023-05-19T11:31:01.361Z,999.39
2023-05-19T11:32:01.395Z,999.36
2023-05-19T11:33:01.436Z,999.38
2023-05-19T11:34:01.339Z,999.33
2023-05-19T11:35:01.339Z,999.32
2023-05-19T11:36:01.337Z,999.35
2023-05-19T11:37:01.304Z,999.29
2023-05-19T11:38:01.296Z,999.43
2023-05-19T11:39:01.288Z,999.31
2023-05-19T11:40:01.295Z,999.37
2023-05-19T11:41:01.266Z,999.31
2023-05-19T11:42:01.265Z,999.30
2023-05-19T11:43:01.239Z,999.31
2023-05-19T11:44:01.247Z,999.27
2023-05-19T11:45:01.243Z,999.19
2023-05-19T11:46:01.286Z,999.21
2023-05-19T11:47:01.199Z,999.18
2023-05-19T11:48:03.041Z,999.29
2023-05-19T11:49:01.198Z,999.22
2023-05-19T11:50:01.179Z,999.22
2023-05-19T11:51:01.168Z,999.32
2023-05-19T11:52:01.155Z,999.23
2023-05-19T11:53:01.372Z,999.11
2023-05-19T11:54:01.157Z,999.17
2023-05-19T11:55:01.125Z,999.13
2023-05-19T11:56:01.113Z,999.12
2023-05-19T11:57:01.105Z,999.09
2023-05-19T11:58:04.629Z,999.17
2023-05-19T11:59:01.088Z,999.25
2023-05-19T12:00:01.068Z,999.20
2023-05-19T12:01:01.061Z,999.27
2023-05-19T12:02:01.065Z,999.20
2023-05-19T12:03:01.093Z,999.22
2023-05-19T12:04:01.074Z,999.18
2023-05-19T12:05:01.043Z,999.16
2023-05-19T12:06:01.063Z,999.28
2023-05-19T12:07:00.994Z,999.20
2023-05-19T12:08:00.997Z,999.20
2023-05-19T12:09:00.981Z,999.28
2023-05-19T12:10:00.967Z,999.25
2023-05-19T12:11:00.960Z,999.26
2023-05-19T12:12:00.956Z,999.22
2023-05-19T12:13:00.939Z,999.20